createdAt,value
2024-05-09T00:02:15.519Z,75.42
2024-05-09T00:05:02.090Z,75.68
2024-05-09T00:07:48.482Z,76.41
2024-05-09T00:10:37.694Z,76.34
2024-05-09T00:13:25.308Z,73.98
2024-05-09T00:16:11.266Z,71.97
2024-05-09T00:18:57.431Z,71.72
2024-05-09T00:21:43.684Z,70.88
2024-05-09T00:24:29.924Z,71.18
2024-05-09T00:27:16.055Z,70.80
2024-05-09T00:30:03.937Z,70.17
2024-05-09T00:32:50.403Z,70.32
2024-05-09T00:35:37.281Z,70.66
2024-05-09T00:38:23.629Z,68.84
2024-05-09T00:41:09.943Z,67.00
2024-05-09T00:43:56.325Z,65.95
2024-05-09T00:46:43.730Z,67.08
2024-05-09T00:49:32.169Z,67.73
2024-05-09T00:52:18.196Z,68.08
2024-05-09T00:55:05.858Z,68.74
2024-05-09T00:57:52.000Z,70.02
2024-05-09T01:00:40.598Z,70.22
2024-05-09T01:03:27.875Z,71.08
2024-05-09T01:06:14.312Z,71.92
2024-05-09T01:09:00.674Z,72.30
2024-05-09T01:11:47.128Z,72.36
2024-05-09T01:14:36.583Z,73.17
2024-05-09T01:17:23.758Z,73.10
2024-05-09T01:20:12.981Z,73.13
2024-05-09T01:23:06.906Z,73.99
2024-05-09T01:25:53.151Z,73.90
2024-05-09T01:28:39.308Z,74.14
2024-05-09T01:31:25.464Z,74.64
2024-05-09T01:34:11.681Z,74.33
2024-05-09T01:36:58.036Z,73.46
2024-05-09T01:39:44.254Z,72.99
2024-05-09T01:42:30.235Z,73.18
2024-05-09T01:45:17.811Z,73.68
2024-05-09T01:48:05.080Z,74.17
2024-05-09T01:50:51.352Z,74.72
2024-05-09T01:53:38.430Z,75.13
2024-05-09T01:56:24.908Z,75.25
2024-05-09T01:59:11.114Z,75.56
2024-05-09T02:01:58.091Z,75.60
2024-05-09T02:04:48.469Z,76.01
2024-05-09T02:07:35.068Z,76.11
2024-05-09T02:10:26.371Z,76.06
2024-05-09T02:13:18.311Z,75.98
2024-05-09T02:16:10.630Z,75.79
2024-05-09T02:18:57.250Z,75.28
2024-05-09T02:21:43.603Z,74.96
2024-05-09T02:24:29.850Z,74.28
2024-05-09T02:27:16.212Z,73.24
2024-05-09T02:30:02.402Z,72.10
2024-05-09T02:32:50.158Z,71.57
2024-05-09T02:35:39.331Z,72.02
2024-05-09T02:38:25.428Z,71.86
2024-05-09T02:41:11.996Z,72.43
2024-05-09T02:43:58.087Z,72.23
2024-05-09T02:46:44.745Z,72.17
2024-05-09T02:49:31.162Z,72.59
2024-05-09T02:52:18.687Z,72.92
2024-05-09T02:55:05.010Z,73.19
2024-05-09T02:57:50.973Z,72.99
2024-05-09T03:00:40.789Z,73.09
2024-05-09T03:03:29.013Z,73.09
2024-05-09T03:06:15.343Z,72.90
2024-05-09T03:09:04.086Z,72.35
2024-05-09T03:11:51.571Z,72.55
2024-05-09T03:14:37.886Z,72.48
2024-05-09T03:17:24.300Z,72.58
2024-05-09T03:20:17.537Z,72.62
2024-05-09T03:23:10.427Z,72.46
2024-05-09T03:25:57.151Z,72.57
2024-05-09T03:28:43.748Z,73.13
2024-05-09T03:31:30.097Z,72.94
2024-05-09T03:34:16.300Z,73.24
2024-05-09T03:37:02.690Z,73.28
2024-05-09T03:39:48.552Z,74.06
2024-05-09T03:42:40.056Z,73.48
2024-05-09T03:45:26.234Z,73.86
2024-05-09T03:48:12.600Z,73.41
2024-05-09T03:50:59.423Z,73.44
2024-05-09T03:53:45.484Z,73.12
2024-05-09T03:56:31.812Z,72.30
2024-05-09T03:59:18.342Z,71.55
2024-05-09T04:02:05.749Z,70.21
2024-05-09T04:04:51.993Z,69.59
2024-05-09T04:07:38.190Z,69.13
2024-05-09T04:10:32.353Z,68.48
2024-05-09T04:13:19.950Z,67.93
2024-05-09T04:16:09.933Z,67.75
2024-05-09T04:18:56.556Z,67.77
2024-05-09T04:21:43.133Z,67.42
2024-05-09T04:24:29.135Z,66.86
2024-05-09T04:27:14.988Z,66.03
2024-05-09T04:30:01.148Z,65.88
2024-05-09T04:32:47.351Z,65.91
2024-05-09T04:35:33.987Z,65.93
2024-05-09T04:38:20.579Z,65.30
2024-05-09T04:41:07.105Z,64.20
2024-05-09T04:43:53.142Z,63.56
2024-05-09T04:46:39.635Z,63.17
2024-05-09T04:49:26.298Z,62.23
2024-05-09T04:52:12.456Z,62.34
2024-05-09T04:54:59.046Z,62.24
2024-05-09T04:57:45.365Z,61.66
2024-05-09T05:00:36.610Z,60.93
2024-05-09T05:03:25.351Z,60.34
2024-05-09T05:06:11.671Z,59.95
2024-05-09T05:08:57.714Z,59.30
2024-05-09T05:11:44.255Z,59.17
2024-05-09T05:14:30.761Z,58.71
2024-05-09T05:17:17.221Z,58.74
2024-05-09T05:20:04.713Z,58.36
2024-05-09T05:22:50.901Z,57.88
2024-05-09T05:25:37.231Z,56.82
2024-05-09T05:28:23.543Z,56.77
2024-05-09T05:31:09.955Z,55.62
2024-05-09T05:33:56.081Z,54.61
2024-05-09T05:36:42.611Z,53.96
2024-05-09T05:39:28.513Z,53.83
2024-05-09T05:42:14.760Z,53.12
2024-05-09T05:45:01.465Z,52.65
2024-05-09T05:47:47.742Z,51.81
2024-05-09T05:50:37.363Z,51.55
2024-05-09T05:53:25.154Z,51.31
2024-05-09T05:56:11.459Z,49.82
2024-05-09T05:58:57.897Z,49.33
2024-05-09T06:01:44.016Z,48.37
2024-05-09T06:04:30.285Z,46.84
2024-05-09T06:07:16.644Z,46.41
2024-05-09T06:10:05.287Z,45.63
2024-05-09T06:12:53.248Z,44.21
2024-05-09T06:15:40.154Z,41.97
2024-05-09T06:18:26.978Z,38.65
2024-05-09T06:21:16.396Z,35.10
2024-05-09T06:24:05.321Z,33.73
2024-05-09T06:26:52.427Z,34.16
2024-05-09T06:29:40.881Z,34.16
2024-05-09T06:32:27.164Z,34.53
2024-05-09T06:35:13.851Z,33.72
2024-05-09T06:38:00.530Z,33.71
2024-05-09T06:40:46.869Z,32.49
2024-05-09T06:43:34.449Z,31.71
2024-05-09T06:46:21.654Z,30.98
2024-05-09T06:49:10.841Z,30.97
2024-05-09T06:51:58.980Z,29.61
2024-05-09T06:54:45.151Z,28.14
2024-05-09T06:57:31.472Z,27.65
2024-05-09T07:00:26.812Z,27.02
2024-05-09T07:03:18.767Z,27.38
2024-05-09T07:06:06.113Z,27.53
2024-05-09T07:08:52.835Z,26.77
2024-05-09T07:11:39.009Z,26.63
2024-05-09T07:14:25.552Z,26.49
2024-05-09T07:17:12.014Z,26.31
2024-05-09T07:19:59.333Z,26.74
2024-05-09T07:22:45.444Z,26.36
2024-05-09T07:25:31.746Z,26.83
2024-05-09T07:28:20.389Z,27.18
2024-05-09T07:31:06.926Z,27.35
2024-05-09T07:33:53.316Z,27.76
2024-05-09T07:36:39.555Z,27.56
2024-05-09T07:39:25.799Z,27.81
2024-05-09T07:42:11.681Z,27.83
2024-05-09T07:45:11.223Z,28.36
2024-05-09T07:52:38.252Z,29.08
2024-05-09T07:54:01.418Z,29.11
2024-05-09T07:56:48.199Z,29.66
2024-05-09T07:59:37.618Z,30.05
2024-05-09T08:02:24.212Z,31.25
2024-05-09T08:05:10.862Z,31.33
2024-05-09T08:07:57.121Z,31.53
2024-05-09T08:10:43.441Z,31.12
2024-05-09T08:13:29.757Z,30.62
2024-05-09T08:16:15.992Z,29.08
2024-05-09T08:19:02.680Z,28.36
2024-05-09T08:21:49.631Z,27.41
2024-05-09T08:24:35.837Z,26.49
2024-05-09T08:27:22.346Z,25.93
2024-05-09T08:30:15.432Z,26.06
2024-05-09T08:33:08.243Z,26.70
2024-05-09T08:35:54.814Z,26.64
2024-05-09T08:38:40.877Z,26.24
2024-05-09T08:41:27.393Z,25.72
2024-05-09T08:44:13.648Z,26.55
2024-05-09T08:46:59.909Z,26.47
2024-05-09T08:49:48.079Z,26.23
2024-05-09T08:52:34.466Z,25.45
2024-05-09T08:55:21.351Z,24.42
2024-05-09T08:58:14.448Z,23.70
2024-05-09T09:01:03.298Z,23.17
2024-05-09T09:03:52.860Z,23.13
2024-05-09T09:06:39.185Z,22.35
2024-05-09T09:09:26.637Z,21.79
2024-05-09T09:12:13.050Z,21.69
2024-05-09T09:14:59.497Z,21.32
2024-05-09T09:17:58.537Z,21.33
2024-05-09T09:20:44.843Z,21.52
2024-05-09T09:23:32.615Z,21.31
2024-05-09T09:26:18.910Z,21.59
2024-05-09T09:29:05.071Z,21.50
2024-05-09T09:32:07.379Z,21.51
2024-05-09T09:34:53.668Z,21.28
2024-05-09T09:37:40.552Z,21.31
2024-05-09T09:40:34.792Z,21.52
2024-05-09T09:43:25.478Z,21.48
2024-05-09T09:46:13.212Z,21.85
2024-05-09T09:49:00.438Z,21.78
2024-05-09T09:51:47.688Z,22.38
2024-05-09T09:54:35.062Z,22.74
2024-05-09T09:57:23.217Z,22.65
2024-05-09T10:00:17.271Z,22.93
2024-05-09T10:03:07.139Z,23.30
2024-05-09T10:05:54.389Z,23.07
2024-05-09T10:08:42.021Z,22.43
2024-05-09T10:11:31.781Z,22.41
2024-05-09T10:14:21.665Z,22.26
2024-05-09T10:17:08.177Z,22.33
2024-05-09T10:20:11.885Z,22.00
2024-05-09T10:23:04.798Z,22.25
2024-05-09T10:26:00.355Z,22.32
2024-05-09T10:28:46.676Z,22.57
2024-05-09T10:31:33.251Z,22.56
2024-05-09T10:34:23.357Z,22.75
2024-05-09T10:37:10.010Z,22.49
2024-05-09T10:39:58.206Z,21.96
2024-05-09T10:42:45.129Z,22.23
2024-05-09T10:45:31.238Z,22.05
2024-05-09T10:48:17.583Z,21.32
2024-05-09T10:51:04.603Z,20.91
2024-05-09T10:53:51.779Z,20.89
2024-05-09T10:56:38.303Z,20.68
2024-05-09T10:59:24.943Z,20.46
2024-05-09T11:02:11.730Z,20.75
2024-05-09T11:04:58.327Z,20.31
2024-05-09T11:07:44.749Z,20.56
2024-05-09T11:10:34.066Z,20.52
2024-05-09T11:13:38.167Z,20.65
2024-05-09T11:16:24.460Z,21.12
2024-05-09T11:19:13.074Z,21.24
2024-05-09T11:22:02.407Z,22.12
2024-05-09T11:24:48.769Z,22.92
2024-05-09T11:27:35.354Z,23.53
2024-05-09T11:30:29.644Z,23.49
2024-05-09T11:33:19.041Z,24.21
2024-05-09T11:36:06.634Z,24.36
2024-05-09T11:38:52.871Z,24.91
2024-05-09T11:41:39.403Z,25.36
2024-05-09T11:44:26.394Z,26.19
2024-05-09T11:47:12.583Z,26.62
2024-05-09T11:49:58.959Z,27.29
2024-05-09T11:52:45.470Z,27.83
2024-05-09T11:55:35.617Z,29.11
2024-05-09T11:58:22.884Z,30.04
2024-05-09T12:01:09.284Z,30.59
2024-05-09T12:03:55.821Z,31.25
2024-05-09T12:06:42.353Z,31.50
2024-05-09T12:09:28.901Z,31.92
2024-05-09T12:12:14.866Z,32.75
2024-05-09T12:15:01.394Z,33.11
2024-05-09T12:17:50.763Z,33.25
2024-05-09T12:20:39.551Z,33.72
2024-05-09T12:23:27.126Z,34.08
2024-05-09T12:26:15.069Z,34.38
2024-05-09T12:29:01.101Z,34.65
2024-05-09T12:31:47.484Z,34.63
2024-05-09T12:34:33.621Z,34.61
2024-05-09T12:37:19.967Z,34.88
2024-05-09T12:40:15.791Z,34.74
2024-05-09T12:43:06.760Z,35.18
2024-05-09T12:45:53.056Z,35.48
2024-05-09T12:48:39.943Z,36.84
2024-05-09T12:51:26.237Z,37.26
2024-05-09T12:54:12.170Z,37.63
2024-05-09T12:56:58.982Z,37.94
2024-05-09T12:59:45.208Z,38.39
2024-05-09T13:02:31.534Z,38.68
2024-05-09T13:05:17.929Z,39.43
2024-05-09T13:08:04.731Z,40.08
2024-05-09T13:10:51.129Z,40.51
2024-05-09T13:13:37.180Z,40.62
2024-05-09T13:16:23.687Z,41.06
2024-05-09T13:19:10.059Z,41.40
2024-05-09T13:21:56.130Z,41.04
2024-05-09T13:24:42.466Z,40.61
2024-05-09T13:27:28.639Z,40.18
2024-05-09T13:30:21.431Z,40.39
2024-05-09T13:33:13.746Z,40.67
2024-05-09T13:36:00.456Z,40.69
2024-05-09T13:38:46.569Z,41.15
2024-05-09T13:41:32.783Z,41.71
2024-05-09T13:44:19.150Z,42.59
2024-05-09T13:47:05.157Z,42.50
2024-05-09T13:49:51.344Z,42.37
2024-05-09T13:52:37.815Z,42.32
2024-05-09T13:55:24.203Z,43.01
2024-05-09T13:58:10.926Z,43.56
2024-05-09T14:00:57.601Z,43.78
2024-05-09T14:03:44.072Z,43.87
2024-05-09T14:06:30.583Z,43.88
2024-05-09T14:09:17.074Z,44.35
2024-05-09T14:12:03.750Z,44.39
2024-05-09T14:14:49.756Z,44.44
2024-05-09T14:17:36.171Z,44.76
2024-05-09T14:20:30.695Z,44.97
2024-05-09T14:23:18.685Z,45.34
2024-05-09T14:26:04.751Z,45.72
2024-05-09T14:28:50.964Z,45.96
2024-05-09T14:31:39.355Z,46.06
2024-05-09T14:34:27.195Z,45.45
2024-05-09T14:37:13.730Z,45.69
2024-05-09T14:40:00.077Z,45.90
2024-05-09T14:42:46.489Z,45.76
2024-05-09T14:45:33.699Z,44.02
2024-05-09T14:48:20.224Z,42.98
2024-05-09T14:51:06.806Z,43.19
2024-05-09T14:53:53.118Z,43.75
2024-05-09T14:56:39.643Z,44.33
2024-05-09T14:59:26.025Z,44.63
2024-05-09T15:02:12.213Z,44.70
2024-05-09T15:04:58.527Z,44.86
2024-05-09T15:07:45.213Z,45.13
2024-05-09T15:10:35.370Z,44.85
2024-05-09T15:13:24.092Z,44.42
2024-05-09T15:16:10.505Z,44.92
2024-05-09T15:18:57.242Z,45.26
2024-05-09T15:21:43.467Z,45.03
2024-05-09T15:24:30.061Z,45.06
2024-05-09T15:27:17.433Z,45.14
2024-05-09T15:30:08.503Z,45.32
2024-05-09T15:32:56.962Z,44.77
2024-05-09T15:35:45.578Z,44.54
2024-05-09T15:38:32.142Z,44.03
2024-05-09T15:41:18.207Z,43.95
2024-05-09T15:44:04.703Z,43.71
2024-05-09T15:46:52.076Z,43.81
2024-05-09T15:49:38.470Z,44.10
2024-05-09T15:52:24.843Z,44.55
2024-05-09T15:55:11.328Z,45.16
2024-05-09T15:57:57.427Z,45.61
2024-05-09T16:00:45.493Z,45.73
2024-05-09T16:03:33.362Z,45.86
2024-05-09T16:06:20.533Z,46.06
2024-05-09T16:09:07.444Z,46.83
2024-05-09T16:11:54.198Z,47.05
2024-05-09T16:14:40.539Z,46.83
2024-05-09T16:17:27.069Z,47.07
2024-05-09T16:20:18.314Z,47.84
2024-05-09T16:23:12.157Z,47.55
2024-05-09T16:25:58.589Z,48.30
2024-05-09T16:28:44.674Z,48.69
2024-05-09T16:31:30.972Z,48.73
2024-05-09T16:34:17.207Z,49.43
2024-05-09T16:37:05.757Z,49.68
2024-05-09T16:39:52.160Z,50.02
2024-05-09T16:42:38.473Z,50.57
2024-05-09T16:45:24.290Z,51.06
2024-05-09T16:48:10.874Z,51.51
2024-05-09T16:50:57.181Z,51.24
2024-05-09T16:53:43.474Z,51.41
2024-05-09T16:56:30.047Z,52.08
2024-05-09T16:59:17.701Z,52.20
2024-05-09T17:02:04.451Z,50.35
2024-05-09T17:04:50.896Z,49.48
2024-05-09T17:07:37.906Z,49.01
2024-05-09T17:10:31.299Z,48.71
2024-05-09T17:13:20.312Z,48.99
2024-05-09T17:16:09.678Z,49.06
2024-05-09T17:18:56.297Z,48.58
2024-05-09T17:21:42.830Z,48.73
2024-05-09T17:24:29.122Z,48.84
2024-05-09T17:27:15.342Z,48.99
2024-05-09T17:30:03.467Z,49.09
2024-05-09T17:32:51.282Z,48.82
2024-05-09T17:35:37.632Z,48.77
2024-05-09T17:38:23.819Z,48.61
2024-05-09T17:41:09.824Z,48.35
2024-05-09T17:43:55.687Z,48.46
2024-05-09T17:46:42.368Z,48.93
2024-05-09T17:49:28.645Z,49.20
2024-05-09T17:52:14.857Z,49.53
2024-05-09T17:55:01.102Z,49.94
2024-05-09T17:57:48.027Z,50.16
2024-05-09T18:00:39.418Z,50.48
2024-05-09T18:03:27.956Z,50.94
2024-05-09T18:06:15.727Z,51.30
2024-05-09T18:09:02.118Z,51.65
2024-05-09T18:11:48.523Z,52.03
2024-05-09T18:14:35.507Z,52.54
2024-05-09T18:17:25.637Z,52.99
2024-05-09T18:20:19.653Z,53.35
2024-05-09T18:23:17.681Z,53.90
2024-05-09T18:26:05.326Z,54.47
2024-05-09T18:28:51.662Z,54.79
2024-05-09T18:31:37.855Z,55.27
2024-05-09T18:34:24.320Z,55.74
2024-05-09T18:37:11.067Z,56.14
2024-05-09T18:39:57.431Z,56.36
2024-05-09T18:42:43.859Z,56.42
2024-05-09T18:45:30.137Z,57.30
2024-05-09T18:48:16.380Z,57.43
2024-05-09T18:51:04.416Z,57.39
2024-05-09T18:53:51.799Z,57.48
2024-05-09T18:56:40.125Z,57.45
2024-05-09T18:59:26.575Z,57.93
2024-05-09T19:02:13.508Z,58.79
2024-05-09T19:05:00.277Z,58.59
2024-05-09T19:07:47.496Z,59.09
2024-05-09T19:10:35.380Z,59.46
2024-05-09T19:13:24.173Z,59.22
2024-05-09T19:16:10.271Z,59.57
2024-05-09T19:18:56.820Z,59.39
2024-05-09T19:21:43.595Z,59.25
2024-05-09T19:24:30.175Z,58.85
2024-05-09T19:27:16.526Z,59.04
2024-05-09T19:30:04.285Z,59.48
2024-05-09T19:32:54.141Z,59.36
2024-05-09T19:35:42.546Z,59.39
2024-05-09T19:38:29.168Z,59.06
2024-05-09T19:41:15.686Z,59.74
2024-05-09T19:44:01.979Z,59.68
2024-05-09T19:46:48.246Z,60.15
2024-05-09T19:49:34.506Z,60.73
2024-05-09T19:52:20.573Z,61.14
2024-05-09T19:55:06.757Z,61.81
2024-05-09T19:57:53.110Z,62.43
2024-05-09T20:00:41.775Z,62.49
2024-05-09T20:03:31.635Z,62.15
2024-05-09T20:06:18.884Z,61.93
2024-05-09T20:09:05.150Z,61.75
2024-05-09T20:11:51.277Z,61.97
2024-05-09T20:14:37.754Z,61.69
2024-05-09T20:17:24.123Z,61.73
2024-05-09T20:20:20.282Z,61.27
2024-05-09T20:23:14.512Z,60.98
2024-05-09T20:26:00.991Z,60.59
2024-05-09T20:28:47.161Z,60.48
2024-05-09T20:31:33.722Z,60.73
2024-05-09T20:34:20.049Z,60.74
2024-05-09T20:37:06.495Z,60.25
2024-05-09T20:39:52.574Z,60.55
2024-05-09T20:42:38.884Z,60.48
2024-05-09T20:45:25.382Z,60.29
2024-05-09T20:48:12.271Z,60.83
2024-05-09T20:50:58.563Z,60.26
2024-05-09T20:53:44.599Z,60.53
2024-05-09T20:56:31.058Z,60.29
2024-05-09T20:59:17.783Z,60.46
2024-05-09T21:02:04.658Z,60.32
2024-05-09T21:04:51.604Z,60.46
2024-05-09T21:07:37.705Z,60.56
2024-05-09T21:10:26.919Z,60.62
2024-05-09T21:13:13.790Z,60.64
2024-05-09T21:16:00.194Z,60.97
2024-05-09T21:18:46.681Z,60.86
2024-05-09T21:21:41.620Z,60.84
2024-05-09T21:24:27.912Z,61.16
2024-05-09T21:27:14.159Z,61.19
2024-05-09T21:30:00.578Z,61.24
2024-05-09T21:32:46.902Z,61.14
2024-05-09T21:35:33.485Z,61.55
2024-05-09T21:38:19.543Z,61.29
2024-05-09T21:41:07.030Z,61.48
2024-05-09T21:43:53.623Z,61.19
2024-05-09T21:46:39.657Z,61.63
2024-05-09T21:49:26.304Z,61.41
2024-05-09T21:52:12.954Z,61.57
2024-05-09T21:54:58.975Z,61.57
2024-05-09T21:57:45.330Z,61.95
2024-05-09T22:00:36.853Z,61.53
2024-05-09T22:03:25.191Z,61.55
2024-05-09T22:06:12.147Z,61.69
2024-05-09T22:08:58.622Z,61.32
2024-05-09T22:11:45.788Z,61.32
2024-05-09T22:14:32.237Z,61.45
2024-05-09T22:17:18.771Z,61.05
2024-05-09T22:20:11.991Z,60.92
2024-05-09T22:23:05.145Z,60.98
2024-05-09T22:25:51.311Z,60.68
2024-05-09T22:28:37.849Z,60.63
2024-05-09T22:31:24.214Z,60.53
2024-05-09T22:34:11.908Z,60.33
2024-05-09T22:36:58.260Z,60.50
2024-05-09T22:39:44.796Z,60.02
2024-05-09T22:42:30.897Z,60.51
2024-05-09T22:45:17.148Z,60.44
2024-05-09T22:48:04.807Z,59.93
2024-05-09T22:50:51.273Z,59.95
2024-05-09T22:53:37.810Z,59.81
2024-05-09T22:56:28.462Z,59.37
2024-05-09T22:59:14.490Z,59.25
2024-05-09T23:02:01.115Z,59.33
2024-05-09T23:04:47.463Z,59.04
2024-05-09T23:07:33.787Z,58.80
2024-05-09T23:10:27.472Z,58.97
2024-05-09T23:13:18.666Z,58.99
2024-05-09T23:16:05.701Z,58.73
2024-05-09T23:18:51.813Z,58.83
2024-05-09T23:21:40.020Z,58.59
2024-05-09T23:24:26.119Z,58.77
2024-05-09T23:27:12.151Z,59.06
2024-05-09T23:29:58.517Z,58.89
2024-05-09T23:32:44.757Z,58.77
2024-05-09T23:35:31.058Z,59.28
2024-05-09T23:38:18.369Z,59.26
2024-05-09T23:41:06.359Z,59.07
2024-05-09T23:43:52.641Z,58.65
2024-05-09T23:46:38.666Z,58.96
2024-05-09T23:49:24.802Z,59.09
2024-05-09T23:52:11.427Z,59.29
2024-05-09T23:54:58.040Z,59.16
2024-05-09T23:57:44.412Z,59.25
